sensor_id;sensor_type;location;lat;lon;timestamp;pressure;altitude;pressure_sealevel;temperature;humidity
77823;BME280;67013;49.730;17.292;2023-06-14T00:00:24;98187.55;;;12.84;59.45
77823;BME280;67013;49.730;17.292;2023-06-14T00:02:54;98185.40;;;12.80;59.69
77823;BME280;67013;49.730;17.292;2023-06-14T00:05:24;98183.29;;;12.77;59.79
77823;BME280;67013;49.730;17.292;2023-06-14T00:07:54;98181.60;;;12.72;60.08
77823;BME280;67013;49.730;17.292;2023-06-14T00:10:23;98180.35;;;12.67;60.01
77823;BME280;67013;49.730;17.292;2023-06-14T00:12:53;98181.72;;;12.66;60.14
77823;BME280;67013;49.730;17.292;2023-06-14T00:15:22;98183.60;;;12.64;60.08
77823;BME280;67013;49.730;17.292;2023-06-14T00:17:52;98183.65;;;12.61;60.24
77823;BME280;67013;49.730;17.292;2023-06-14T00:20:22;98185.23;;;12.60;60.13
77823;BME280;67013;49.730;17.292;2023-06-14T00:22:52;98189.14;;;12.59;60.16
77823;BME280;67013;49.730;17.292;2023-06-14T00:25:23;98192.21;;;12.57;60.44
77823;BME280;67013;49.730;17.292;2023-06-14T00:27:53;98197.09;;;12.55;60.39
77823;BME280;67013;49.730;17.292;2023-06-14T00:30:24;98191.39;;;12.53;60.68
77823;BME280;67013;49.730;17.292;2023-06-14T00:32:53;98189.38;;;12.52;60.80
77823;BME280;67013;49.730;17.292;2023-06-14T00:35:23;98191.89;;;12.51;60.79
77823;BME280;67013;49.730;17.292;2023-06-14T00:37:53;98195.16;;;12.51;60.74
77823;BME280;67013;49.730;17.292;2023-06-14T00:40:23;98198.13;;;12.54;60.82
77823;BME280;67013;49.730;17.292;2023-06-14T00:42:53;98199.21;;;12.55;60.75
77823;BME280;67013;49.730;17.292;2023-06-14T00:45:22;98202.59;;;12.56;60.75
77823;BME280;67013;49.730;17.292;2023-06-14T00:47:52;98204.48;;;12.57;60.89
77823;BME280;67013;49.730;17.292;2023-06-14T00:50:23;98202.77;;;12.56;60.70
77823;BME280;67013;49.730;17.292;2023-06-14T00:52:53;98200.64;;;12.55;60.97
77823;BME280;67013;49.730;17.292;2023-06-14T00:55:23;98202.05;;;12.53;61.04
77823;BME280;67013;49.730;17.292;2023-06-14T00:57:53;98203.63;;;12.50;61.34
77823;BME280;67013;49.730;17.292;2023-06-14T01:00:23;98202.42;;;12.48;61.44
77823;BME280;67013;49.730;17.292;2023-06-14T01:02:53;98200.64;;;12.46;61.35
77823;BME280;67013;49.730;17.292;2023-06-14T01:05:23;98197.36;;;12.46;61.51
77823;BME280;67013;49.730;17.292;2023-06-14T01:08:10;98195.62;;;12.46;61.41
77823;BME280;67013;49.730;17.292;2023-06-14T01:10:50;98194.13;;;12.43;61.43
77823;BME280;67013;49.730;17.292;2023-06-14T01:13:26;98189.82;;;12.43;61.47
77823;BME280;67013;49.730;17.292;2023-06-14T01:15:57;98185.76;;;12.43;61.70
77823;BME280;67013;49.730;17.292;2023-06-14T01:18:29;98189.88;;;12.42;61.68
77823;BME280;67013;49.730;17.292;2023-06-14T01:20:59;98183.19;;;12.36;61.95
77823;BME280;67013;49.730;17.292;2023-06-14T01:23:34;98183.67;;;12.32;61.82
77823;BME280;67013;49.730;17.292;2023-06-14T01:26:03;98184.27;;;12.28;62.04
77823;BME280;67013;49.730;17.292;2023-06-14T01:28:35;98187.23;;;12.26;62.23
77823;BME280;67013;49.730;17.292;2023-06-14T01:31:05;98191.46;;;12.25;62.30
77823;BME280;67013;49.730;17.292;2023-06-14T01:33:36;98190.09;;;12.23;62.49
77823;BME280;67013;49.730;17.292;2023-06-14T01:36:08;98190.66;;;12.20;62.66
77823;BME280;67013;49.730;17.292;2023-06-14T01:38:38;98187.90;;;12.17;62.69
77823;BME280;67013;49.730;17.292;2023-06-14T01:41:08;98184.93;;;12.16;62.86
77823;BME280;67013;49.730;17.292;2023-06-14T01:43:40;98188.14;;;12.15;63.02
77823;BME280;67013;49.730;17.292;2023-06-14T01:46:11;98188.48;;;12.13;63.10
77823;BME280;67013;49.730;17.292;2023-06-14T01:48:41;98194.06;;;12.12;63.25
77823;BME280;67013;49.730;17.292;2023-06-14T01:51:11;98193.45;;;12.14;63.15
77823;BME280;67013;49.730;17.292;2023-06-14T01:53:40;98195.25;;;12.15;63.13
77823;BME280;67013;49.730;17.292;2023-06-14T01:56:10;98196.60;;;12.18;63.28
77823;BME280;67013;49.730;17.292;2023-06-14T01:58:40;98200.15;;;12.21;63.28
77823;BME280;67013;49.730;17.292;2023-06-14T02:01:09;98199.80;;;12.23;63.38
77823;BME280;67013;49.730;17.292;2023-06-14T02:03:39;98195.80;;;12.23;63.51
77823;BME280;67013;49.730;17.292;2023-06-14T02:06:09;98195.24;;;12.23;63.43
77823;BME280;67013;49.730;17.292;2023-06-14T02:08:38;98192.58;;;12.24;63.25
77823;BME280;67013;49.730;17.292;2023-06-14T02:11:08;98193.98;;;12.24;63.20
77823;BME280;67013;49.730;17.292;2023-06-14T02:13:38;98194.58;;;12.23;63.23
77823;BME280;67013;49.730;17.292;2023-06-14T02:16:07;98198.08;;;12.21;63.39
77823;BME280;67013;49.730;17.292;2023-06-14T02:18:37;98200.31;;;12.17;63.63
77823;BME280;67013;49.730;17.292;2023-06-14T02:21:07;98203.69;;;12.14;63.48
77823;BME280;67013;49.730;17.292;2023-06-14T02:23:36;98205.85;;;12.11;63.59
77823;BME280;67013;49.730;17.292;2023-06-14T02:26:06;98203.39;;;12.09;63.99
77823;BME280;67013;49.730;17.292;2023-06-14T02:28:35;98205.89;;;12.07;63.85
77823;BME280;67013;49.730;17.292;2023-06-14T02:31:04;98204.09;;;12.07;63.69
77823;BME280;67013;49.730;17.292;2023-06-14T02:33:34;98203.75;;;12.09;63.87
77823;BME280;67013;49.730;17.292;2023-06-14T02:36:05;98201.89;;;12.11;63.95
77823;BME280;67013;49.730;17.292;2023-06-14T02:38:35;98197.23;;;12.12;63.85
77823;BME280;67013;49.730;17.292;2023-06-14T02:41:04;98201.38;;;12.15;63.91
77823;BME280;67013;49.730;17.292;2023-06-14T02:43:34;98204.85;;;12.17;63.71
77823;BME280;67013;49.730;17.292;2023-06-14T02:46:04;98204.85;;;12.17;63.89
77823;BME280;67013;49.730;17.292;2023-06-14T02:48:34;98207.31;;;12.17;63.92
77823;BME280;67013;49.730;17.292;2023-06-14T02:51:04;98207.89;;;12.16;63.93
77823;BME280;67013;49.730;17.292;2023-06-14T02:53:34;98207.02;;;12.16;63.68
77823;BME280;67013;49.730;17.292;2023-06-14T02:56:04;98203.10;;;12.17;63.81
77823;BME280;67013;49.730;17.292;2023-06-14T02:58:34;98203.81;;;12.17;64.04
77823;BME280;67013;49.730;17.292;2023-06-14T03:01:03;98202.21;;;12.17;64.08
77823;BME280;67013;49.730;17.292;2023-06-14T03:03:35;98207.64;;;12.17;64.07
77823;BME280;67013;49.730;17.292;2023-06-14T03:06:05;98206.82;;;12.17;64.01
77823;BME280;67013;49.730;17.292;2023-06-14T03:08:36;98210.42;;;12.17;64.21
77823;BME280;67013;49.730;17.292;2023-06-14T03:11:07;98210.27;;;12.21;64.27
77823;BME280;67013;49.730;17.292;2023-06-14T03:13:37;98204.06;;;12.24;64.08
77823;BME280;67013;49.730;17.292;2023-06-14T03:16:08;98206.03;;;12.30;64.11
77823;BME280;67013;49.730;17.292;2023-06-14T03:18:39;98208.06;;;12.35;64.21
77823;BME280;67013;49.730;17.292;2023-06-14T03:21:08;98207.48;;;12.40;63.94
77823;BME280;67013;49.730;17.292;2023-06-14T03:23:39;98205.05;;;12.44;64.08
77823;BME280;67013;49.730;17.292;2023-06-14T03:26:09;98203.23;;;12.47;64.18
77823;BME280;67013;49.730;17.292;2023-06-14T03:28:43;98201.78;;;12.47;64.16
77823;BME280;67013;49.730;17.292;2023-06-14T03:31:13;98202.13;;;12.49;64.13
77823;BME280;67013;49.730;17.292;2023-06-14T03:33:43;98204.33;;;12.52;63.92
77823;BME280;67013;49.730;17.292;2023-06-14T03:36:12;98205.25;;;12.56;64.10
77823;BME280;67013;49.730;17.292;2023-06-14T03:38:43;98209.29;;;12.60;63.85
77823;BME280;67013;49.730;17.292;2023-06-14T03:41:12;98207.88;;;12.64;64.02
77823;BME280;67013;49.730;17.292;2023-06-14T03:43:41;98213.97;;;12.68;63.72
77823;BME280;67013;49.730;17.292;2023-06-14T03:46:11;98212.14;;;12.74;63.68
77823;BME280;67013;49.730;17.292;2023-06-14T03:48:40;98213.77;;;12.79;63.74
77823;BME280;67013;49.730;17.292;2023-06-14T03:51:10;98216.05;;;12.87;63.34
77823;BME280;67013;49.730;17.292;2023-06-14T03:53:40;98216.60;;;12.97;63.32
77823;BME280;67013;49.730;17.292;2023-06-14T03:56:09;98209.06;;;13.07;63.32
77823;BME280;67013;49.730;17.292;2023-06-14T03:58:39;98207.23;;;13.19;63.04
77823;BME280;67013;49.730;17.292;2023-06-14T04:01:08;98212.39;;;13.30;62.81
77823;BME280;67013;49.730;17.292;2023-06-14T04:03:40;98214.45;;;13.42;62.82
77823;BME280;67013;49.730;17.292;2023-06-14T04:06:09;98213.97;;;13.56;62.55
77823;BME280;67013;49.730;17.292;2023-06-14T04:08:39;98211.89;;;13.69;62.40
77823;BME280;67013;49.730;17.292;2023-06-14T04:11:09;98207.88;;;13.85;62.16
77823;BME280;67013;49.730;17.292;2023-06-14T04:13:39;98209.92;;;14.13;61.82
77823;BME280;67013;49.730;17.292;2023-06-14T04:16:08;98215.32;;;15.08;60.44
77823;BME280;67013;49.730;17.292;2023-06-14T04:18:38;98219.33;;;16.44;58.23
77823;BME280;67013;49.730;17.292;2023-06-14T04:21:07;98211.15;;;17.88;55.57
77823;BME280;67013;49.730;17.292;2023-06-14T04:23:37;98218.95;;;19.29;52.57
77823;BME280;67013;49.730;17.292;2023-06-14T04:26:06;98211.94;;;20.62;49.70
77823;BME280;67013;49.730;17.292;2023-06-14T04:28:38;98215.71;;;21.96;46.82
77823;BME280;67013;49.730;17.292;2023-06-14T04:31:09;98212.08;;;23.20;44.55
77823;BME280;67013;49.730;17.292;2023-06-14T04:33:39;98209.95;;;24.29;42.05
77823;BME280;67013;49.730;17.292;2023-06-14T04:36:13;98214.84;;;25.38;39.90
77823;BME280;67013;49.730;17.292;2023-06-14T04:38:45;98214.35;;;26.29;38.04
77823;BME280;67013;49.730;17.292;2023-06-14T04:41:17;98215.87;;;26.38;36.97
77823;BME280;67013;49.730;17.292;2023-06-14T04:43:47;98224.41;;;26.23;36.32
77823;BME280;67013;49.730;17.292;2023-06-14T04:46:17;98221.32;;;26.41;35.75
77823;BME280;67013;49.730;17.292;2023-06-14T04:48:46;98229.64;;;26.93;34.91
77823;BME280;67013;49.730;17.292;2023-06-14T04:51:18;98229.11;;;27.48;34.00
77823;BME280;67013;49.730;17.292;2023-06-14T04:53:49;98229.66;;;27.76;33.16
77823;BME280;67013;49.730;17.292;2023-06-14T04:56:18;98227.05;;;28.45;32.36
77823;BME280;67013;49.730;17.292;2023-06-14T04:58:48;98232.67;;;29.39;30.79
77823;BME280;67013;49.730;17.292;2023-06-14T05:01:17;98237.33;;;30.26;29.64
77823;BME280;67013;49.730;17.292;2023-06-14T05:03:47;98237.92;;;31.15;28.34
77823;BME280;67013;49.730;17.292;2023-06-14T05:06:17;98239.61;;;32.05;27.50
77823;BME280;67013;49.730;17.292;2023-06-14T05:08:46;98239.35;;;32.97;26.17
77823;BME280;67013;49.730;17.292;2023-06-14T05:11:16;98239.39;;;33.70;25.10
77823;BME280;67013;49.730;17.292;2023-06-14T05:13:46;98241.89;;;34.12;23.72
77823;BME280;67013;49.730;17.292;2023-06-14T05:16:15;98241.70;;;34.45;23.60
77823;BME280;67013;49.730;17.292;2023-06-14T05:18:47;98239.48;;;34.83;22.91
77823;BME280;67013;49.730;17.292;2023-06-14T05:21:17;98241.11;;;35.26;22.46
77823;BME280;67013;49.730;17.292;2023-06-14T05:23:46;98238.23;;;35.88;22.30
77823;BME280;67013;49.730;17.292;2023-06-14T05:26:16;98239.92;;;36.54;21.57
77823;BME280;67013;49.730;17.292;2023-06-14T05:28:46;98235.37;;;37.24;20.82
77823;BME280;67013;49.730;17.292;2023-06-14T05:31:15;98236.65;;;37.91;20.15
77823;BME280;67013;49.730;17.292;2023-06-14T05:33:44;98243.33;;;38.49;19.43
77823;BME280;67013;49.730;17.292;2023-06-14T05:36:14;98238.40;;;38.88;19.05
77823;BME280;67013;49.730;17.292;2023-06-14T05:38:43;98238.48;;;39.38;18.60
77823;BME280;67013;49.730;17.292;2023-06-14T05:41:14;98240.05;;;39.87;18.22
77823;BME280;67013;49.730;17.292;2023-06-14T05:43:43;98241.56;;;40.26;17.65
77823;BME280;67013;49.730;17.292;2023-06-14T05:46:13;98242.89;;;40.72;17.53
77823;BME280;67013;49.730;17.292;2023-06-14T05:48:43;98243.59;;;41.19;16.96
77823;BME280;67013;49.730;17.292;2023-06-14T05:51:13;98245.14;;;41.53;16.22
77823;BME280;67013;49.730;17.292;2023-06-14T05:53:42;98246.40;;;41.82;15.97
77823;BME280;67013;49.730;17.292;2023-06-14T05:56:12;98245.52;;;42.16;16.21
77823;BME280;67013;49.730;17.292;2023-06-14T05:58:41;98248.02;;;42.29;15.47
77823;BME280;67013;49.730;17.292;2023-06-14T06:01:11;98246.90;;;41.91;14.85
77823;BME280;67013;49.730;17.292;2023-06-14T06:03:41;98245.38;;;41.58;14.87
77823;BME280;67013;49.730;17.292;2023-06-14T06:06:14;98245.28;;;41.02;15.01
77823;BME280;67013;49.730;17.292;2023-06-14T06:08:44;98252.58;;;40.59;15.23
77823;BME280;67013;49.730;17.292;2023-06-14T06:11:13;98249.64;;;40.29;15.50
77823;BME280;67013;49.730;17.292;2023-06-14T06:13:43;98252.03;;;40.07;15.87
77823;BME280;67013;49.730;17.292;2023-06-14T06:16:12;98254.89;;;40.14;16.09
77823;BME280;67013;49.730;17.292;2023-06-14T06:18:42;98256.95;;;40.30;15.96
77823;BME280;67013;49.730;17.292;2023-06-14T06:21:11;98263.14;;;40.26;16.15
77823;BME280;67013;49.730;17.292;2023-06-14T06:23:41;98266.92;;;40.18;16.09
77823;BME280;67013;49.730;17.292;2023-06-14T06:26:10;98271.66;;;39.76;16.22
77823;BME280;67013;49.730;17.292;2023-06-14T06:28:40;98271.23;;;39.62;16.21
77823;BME280;67013;49.730;17.292;2023-06-14T06:31:09;98272.67;;;39.64;16.28
77823;BME280;67013;49.730;17.292;2023-06-14T06:33:39;98274.36;;;39.64;16.33
77823;BME280;67013;49.730;17.292;2023-06-14T06:36:08;98279.69;;;39.65;16.40
77823;BME280;67013;49.730;17.292;2023-06-14T06:38:38;98277.45;;;39.71;16.50
77823;BME280;67013;49.730;17.292;2023-06-14T06:41:08;98284.09;;;39.85;16.38
77823;BME280;67013;49.730;17.292;2023-06-14T06:43:38;98285.06;;;39.84;16.10
77823;BME280;67013;49.730;17.292;2023-06-14T06:46:08;98287.66;;;39.71;15.94
77823;BME280;67013;49.730;17.292;2023-06-14T06:48:37;98288.23;;;39.64;15.78
77823;BME280;67013;49.730;17.292;2023-06-14T06:51:07;98289.50;;;39.64;15.68
77823;BME280;67013;49.730;17.292;2023-06-14T06:53:36;98289.20;;;39.57;15.96
77823;BME280;67013;49.730;17.292;2023-06-14T06:56:06;98290.73;;;39.67;15.64
77823;BME280;67013;49.730;17.292;2023-06-14T06:58:35;98290.85;;;39.70;15.51
77823;BME280;67013;49.730;17.292;2023-06-14T07:01:05;98293.09;;;39.70;15.70
77823;BME280;67013;49.730;17.292;2023-06-14T07:03:35;98295.47;;;39.75;15.69
77823;BME280;67013;49.730;17.292;2023-06-14T07:06:04;98298.34;;;39.73;15.53
77823;BME280;67013;49.730;17.292;2023-06-14T07:08:34;98301.79;;;39.67;15.66
77823;BME280;67013;49.730;17.292;2023-06-14T07:11:04;98298.33;;;39.32;15.72
77823;BME280;67013;49.730;17.292;2023-06-14T07:13:33;98298.29;;;38.95;15.95
77823;BME280;67013;49.730;17.292;2023-06-14T07:16:03;98299.30;;;38.68;16.41
77823;BME280;67013;49.730;17.292;2023-06-14T07:18:32;98300.25;;;38.13;15.89
77823;BME280;67013;49.730;17.292;2023-06-14T07:21:01;98304.84;;;36.75;16.70
77823;BME280;67013;49.730;17.292;2023-06-14T07:23:31;98304.10;;;35.59;17.75
77823;BME280;67013;49.730;17.292;2023-06-14T07:26:01;98305.87;;;34.84;18.62
77823;BME280;67013;49.730;17.292;2023-06-14T07:28:31;98306.12;;;34.14;19.17
77823;BME280;67013;49.730;17.292;2023-06-14T07:31:00;98303.96;;;33.62;19.84
77823;BME280;67013;49.730;17.292;2023-06-14T07:33:30;98309.20;;;33.17;20.38
77823;BME280;67013;49.730;17.292;2023-06-14T07:36:00;98305.89;;;32.57;20.96
77823;BME280;67013;49.730;17.292;2023-06-14T07:38:30;98307.18;;;32.18;21.65
77823;BME280;67013;49.730;17.292;2023-06-14T07:40:59;98311.83;;;31.85;21.89
77823;BME280;67013;49.730;17.292;2023-06-14T07:43:29;98310.69;;;31.26;21.93
77823;BME280;67013;49.730;17.292;2023-06-14T07:45:58;98317.36;;;30.84;22.84
77823;BME280;67013;49.730;17.292;2023-06-14T07:48:28;98315.53;;;30.65;23.57
77823;BME280;67013;49.730;17.292;2023-06-14T07:50:57;98317.33;;;30.57;24.15
77823;BME280;67013;49.730;17.292;2023-06-14T07:53:27;98318.42;;;30.53;23.60
77823;BME280;67013;49.730;17.292;2023-06-14T07:55:57;98322.46;;;30.51;22.86
77823;BME280;67013;49.730;17.292;2023-06-14T07:58:27;98323.52;;;30.23;22.51
77823;BME280;67013;49.730;17.292;2023-06-14T08:00:56;98323.19;;;29.65;23.16
77823;BME280;67013;49.730;17.292;2023-06-14T08:03:25;98320.80;;;29.44;24.34
77823;BME280;67013;49.730;17.292;2023-06-14T08:05:56;98317.50;;;29.37;24.35
77823;BME280;67013;49.730;17.292;2023-06-14T08:08:25;98315.27;;;29.14;24.55
77823;BME280;67013;49.730;17.292;2023-06-14T08:10:57;98317.94;;;28.89;25.16
77823;BME280;67013;49.730;17.292;2023-06-14T08:13:26;98320.68;;;28.51;24.77
77823;BME280;67013;49.730;17.292;2023-06-14T08:15:56;98319.98;;;28.11;25.52
77823;BME280;67013;49.730;17.292;2023-06-14T08:18:26;98320.45;;;27.74;25.79
77823;BME280;67013;49.730;17.292;2023-06-14T08:20:56;98318.98;;;27.52;26.67
77823;BME280;67013;49.730;17.292;2023-06-14T08:23:25;98327.15;;;27.18;27.04
77823;BME280;67013;49.730;17.292;2023-06-14T08:25:55;98331.22;;;26.83;27.54
77823;BME280;67013;49.730;17.292;2023-06-14T08:28:26;98334.38;;;26.78;27.58
77823;BME280;67013;49.730;17.292;2023-06-14T08:30:56;98336.04;;;26.70;27.51
77823;BME280;67013;49.730;17.292;2023-06-14T08:33:25;98335.68;;;26.55;27.84
77823;BME280;67013;49.730;17.292;2023-06-14T08:35:55;98338.17;;;26.43;28.51
77823;BME280;67013;49.730;17.292;2023-06-14T08:38:24;98340.95;;;26.15;28.53
77823;BME280;67013;49.730;17.292;2023-06-14T08:40:58;98339.73;;;25.79;29.03
77823;BME280;67013;49.730;17.292;2023-06-14T08:43:30;98337.24;;;25.69;29.48
77823;BME280;67013;49.730;17.292;2023-06-14T08:46:02;98335.64;;;25.77;29.38
77823;BME280;67013;49.730;17.292;2023-06-14T08:48:32;98335.77;;;25.91;29.41
77823;BME280;67013;49.730;17.292;2023-06-14T08:51:03;98330.85;;;25.97;29.46
77823;BME280;67013;49.730;17.292;2023-06-14T08:53:35;98333.01;;;26.04;29.15
77823;BME280;67013;49.730;17.292;2023-06-14T08:56:10;98331.13;;;26.22;28.99
77823;BME280;67013;49.730;17.292;2023-06-14T08:58:43;98323.03;;;26.50;28.51
77823;BME280;67013;49.730;17.292;2023-06-14T09:01:13;98325.23;;;26.67;28.07
77823;BME280;67013;49.730;17.292;2023-06-14T09:03:45;98326.77;;;26.68;27.83
77823;BME280;67013;49.730;17.292;2023-06-14T09:06:16;98321.50;;;26.55;27.92
77823;BME280;67013;49.730;17.292;2023-06-14T09:08:47;98323.20;;;26.32;28.29
77823;BME280;67013;49.730;17.292;2023-06-14T09:11:18;98322.38;;;26.17;28.78
77823;BME280;67013;49.730;17.292;2023-06-14T09:13:48;98320.17;;;26.28;28.96
77823;BME280;67013;49.730;17.292;2023-06-14T09:16:18;98326.11;;;26.23;28.92
77823;BME280;67013;49.730;17.292;2023-06-14T09:18:49;98329.48;;;26.22;29.19
77823;BME280;67013;49.730;17.292;2023-06-14T09:21:19;98324.85;;;26.33;29.16
77823;BME280;67013;49.730;17.292;2023-06-14T09:23:49;98328.49;;;26.39;28.83
77823;BME280;67013;49.730;17.292;2023-06-14T09:26:19;98327.77;;;26.49;28.65
77823;BME280;67013;49.730;17.292;2023-06-14T09:28:51;98332.21;;;26.57;28.17
77823;BME280;67013;49.730;17.292;2023-06-14T09:31:21;98330.56;;;26.76;28.24
77823;BME280;67013;49.730;17.292;2023-06-14T09:33:51;98323.14;;;27.05;28.31
77823;BME280;67013;49.730;17.292;2023-06-14T09:36:25;98322.37;;;27.22;27.83
77823;BME280;67013;49.730;17.292;2023-06-14T09:38:55;98322.38;;;27.22;27.40
77823;BME280;67013;49.730;17.292;2023-06-14T09:41:33;98324.34;;;27.12;27.04
77823;BME280;67013;49.730;17.292;2023-06-14T09:44:04;98324.64;;;26.97;27.43
77823;BME280;67013;49.730;17.292;2023-06-14T09:46:35;98317.23;;;27.01;27.42
77823;BME280;67013;49.730;17.292;2023-06-14T09:49:06;98321.05;;;26.98;27.52
77823;BME280;67013;49.730;17.292;2023-06-14T09:51:41;98323.08;;;26.92;27.49
77823;BME280;67013;49.730;17.292;2023-06-14T09:54:16;98324.70;;;26.84;27.71
77823;BME280;67013;49.730;17.292;2023-06-14T09:56:49;98324.88;;;26.63;27.63
77823;BME280;67013;49.730;17.292;2023-06-14T09:59:26;98322.86;;;26.70;27.91
77823;BME280;67013;49.730;17.292;2023-06-14T10:02:03;98323.20;;;26.82;28.41
77823;BME280;67013;49.730;17.292;2023-06-14T10:04:36;98316.79;;;26.94;28.37
77823;BME280;67013;49.730;17.292;2023-06-14T10:07:06;98312.62;;;26.93;28.30
77823;BME280;67013;49.730;17.292;2023-06-14T10:09:37;98321.17;;;26.76;27.99
77823;BME280;67013;49.730;17.292;2023-06-14T10:12:06;98315.80;;;26.59;27.90
77823;BME280;67013;49.730;17.292;2023-06-14T10:14:36;98317.52;;;26.56;28.12
77823;BME280;67013;49.730;17.292;2023-06-14T10:17:10;98319.48;;;26.57;28.20
77823;BME280;67013;49.730;17.292;2023-06-14T10:19:50;98312.44;;;26.53;28.86
77823;BME280;67013;49.730;17.292;2023-06-14T10:22:26;98313.19;;;26.54;28.48
77823;BME280;67013;49.730;17.292;2023-06-14T10:24:58;98315.11;;;26.53;28.04
77823;BME280;67013;49.730;17.292;2023-06-14T10:27:28;98312.80;;;26.42;28.09
77823;BME280;67013;49.730;17.292;2023-06-14T10:30:07;98309.06;;;26.45;28.09
77823;BME280;67013;49.730;17.292;2023-06-14T10:33:04;98306.80;;;26.44;27.92
77823;BME280;67013;49.730;17.292;2023-06-14T10:35:35;98308.89;;;26.31;28.07
77823;BME280;67013;49.730;17.292;2023-06-14T10:38:13;98314.35;;;26.10;28.19
77823;BME280;67013;49.730;17.292;2023-06-14T10:40:42;98310.49;;;25.86;28.55
77823;BME280;67013;49.730;17.292;2023-06-14T10:43:26;98313.60;;;25.49;28.69
77823;BME280;67013;49.730;17.292;2023-06-14T10:46:18;98309.24;;;25.13;29.31
77823;BME280;67013;49.730;17.292;2023-06-14T10:48:58;98306.88;;;25.06;29.85
77823;BME280;67013;49.730;17.292;2023-06-14T10:51:31;98311.80;;;25.04;29.94
77823;BME280;67013;49.730;17.292;2023-06-14T10:54:14;98308.02;;;25.08;29.98
77823;BME280;67013;49.730;17.292;2023-06-14T10:56:47;98303.08;;;25.10;30.11
77823;BME280;67013;49.730;17.292;2023-06-14T10:59:17;98305.51;;;25.14;30.87
77823;BME280;67013;49.730;17.292;2023-06-14T11:01:58;98300.48;;;25.16;31.01
77823;BME280;67013;49.730;17.292;2023-06-14T11:04:45;98299.86;;;24.94;30.30
77823;BME280;67013;49.730;17.292;2023-06-14T11:07:30;98297.87;;;24.72;29.85
77823;BME280;67013;49.730;17.292;2023-06-14T11:10:14;98292.60;;;24.64;30.36
77823;BME280;67013;49.730;17.292;2023-06-14T11:12:49;98291.42;;;24.71;31.03
77823;BME280;67013;49.730;17.292;2023-06-14T11:15:17;98293.52;;;24.82;31.14
77823;BME280;67013;49.730;17.292;2023-06-14T11:17:52;98287.03;;;24.84;30.36
77823;BME280;67013;49.730;17.292;2023-06-14T11:20:26;98288.08;;;24.88;30.94
77823;BME280;67013;49.730;17.292;2023-06-14T11:22:56;98286.42;;;24.86;31.21
77823;BME280;67013;49.730;17.292;2023-06-14T11:25:26;98289.02;;;24.87;31.64
77823;BME280;67013;49.730;17.292;2023-06-14T11:27:56;98281.73;;;24.83;31.43
77823;BME280;67013;49.730;17.292;2023-06-14T11:30:27;98283.41;;;24.60;31.20
77823;BME280;67013;49.730;17.292;2023-06-14T11:32:57;98293.30;;;24.26;31.15
77823;BME280;67013;49.730;17.292;2023-06-14T11:35:27;98294.31;;;23.87;31.89
77823;BME280;67013;49.730;17.292;2023-06-14T11:37:56;98288.78;;;23.57;31.89
77823;BME280;67013;49.730;17.292;2023-06-14T11:40:27;98283.56;;;23.42;32.45
77823;BME280;67013;49.730;17.292;2023-06-14T11:43:01;98279.54;;;23.40;32.73
77823;BME280;67013;49.730;17.292;2023-06-14T11:45:32;98275.16;;;23.41;32.69
77823;BME280;67013;49.730;17.292;2023-06-14T11:48:03;98271.63;;;23.36;32.89
77823;BME280;67013;49.730;17.292;2023-06-14T11:50:33;98274.27;;;23.30;33.71
77823;BME280;67013;49.730;17.292;2023-06-14T11:53:06;98274.65;;;23.16;33.72
77823;BME280;67013;49.730;17.292;2023-06-14T11:55:39;98275.35;;;23.09;33.44
77823;BME280;67013;49.730;17.292;2023-06-14T11:58:10;98276.20;;;23.02;33.28
77823;BME280;67013;49.730;17.292;2023-06-14T12:00:39;98274.08;;;22.93;32.65
77823;BME280;67013;49.730;17.292;2023-06-14T12:03:10;98266.45;;;22.84;32.91
77823;BME280;67013;49.730;17.292;2023-06-14T12:05:40;98265.14;;;22.86;32.65
77823;BME280;67013;49.730;17.292;2023-06-14T12:08:10;98261.71;;;22.92;32.06
77823;BME280;67013;49.730;17.292;2023-06-14T12:10:45;98254.77;;;23.05;32.69
77823;BME280;67013;49.730;17.292;2023-06-14T12:13:18;98252.86;;;23.25;33.23
77823;BME280;67013;49.730;17.292;2023-06-14T12:15:55;98254.10;;;23.48;33.27
77823;BME280;67013;49.730;17.292;2023-06-14T12:18:35;98253.68;;;23.66;31.91
77823;BME280;67013;49.730;17.292;2023-06-14T12:21:06;98251.35;;;23.83;31.99
77823;BME280;67013;49.730;17.292;2023-06-14T12:23:44;98253.87;;;23.97;31.94
77823;BME280;67013;49.730;17.292;2023-06-14T12:26:15;98254.30;;;24.04;31.28
77823;BME280;67013;49.730;17.292;2023-06-14T12:28:45;98256.77;;;23.98;31.43
77823;BME280;67013;49.730;17.292;2023-06-14T12:31:16;98259.20;;;23.78;32.73
77823;BME280;67013;49.730;17.292;2023-06-14T12:33:47;98261.61;;;23.49;33.36
77823;BME280;67013;49.730;17.292;2023-06-14T12:36:16;98261.60;;;23.21;33.52
77823;BME280;67013;49.730;17.292;2023-06-14T12:38:46;98262.34;;;22.98;34.00
77823;BME280;67013;49.730;17.292;2023-06-14T12:41:16;98260.91;;;22.80;34.28
77823;BME280;67013;49.730;17.292;2023-06-14T12:43:46;98261.02;;;22.67;34.55
77823;BME280;67013;49.730;17.292;2023-06-14T12:46:15;98259.39;;;22.50;34.14
77823;BME280;67013;49.730;17.292;2023-06-14T12:48:45;98258.14;;;22.34;34.30
77823;BME280;67013;49.730;17.292;2023-06-14T12:51:14;98259.31;;;22.25;34.29
77823;BME280;67013;49.730;17.292;2023-06-14T12:53:44;98260.92;;;22.19;34.58
77823;BME280;67013;49.730;17.292;2023-06-14T12:56:13;98256.52;;;22.13;34.51
77823;BME280;67013;49.730;17.292;2023-06-14T12:58:43;98261.48;;;22.06;34.46
77823;BME280;67013;49.730;17.292;2023-06-14T13:01:13;98258.09;;;21.97;34.37
77823;BME280;67013;49.730;17.292;2023-06-14T13:03:42;98257.19;;;21.89;35.81
77823;BME280;67013;49.730;17.292;2023-06-14T13:06:12;98258.56;;;21.90;36.78
77823;BME280;67013;49.730;17.292;2023-06-14T13:08:41;98256.52;;;21.94;36.93